首页
METAR-TAF:

METAR-TAF

机场 :

La Crosse, 威斯康辛州, 美国

纬度: 43-52-46N, 经度: 091-15-24W, 海拔: 199米

当前天气观测

该预报发布于1小时和5分钟前的20:53 UTC
风速7节,风向南转西南
温度 26°C
湿度 34%
气压 1018 hPa
能見度: 16.1公里
少量云层高于8500英尺

METAR: KLSE 052053Z 21007KT 10SM FEW085 26/09 A3006 RMK AO2 SLP173 T02610089 56008

时间: 16:58 (21:58 UTC)

预报

该预报发布于4小时和26分钟前的17:32 UTC
预报有效从05日的 18点(UTC)到 06日的 18点(UTC)
风速9节,风向西南
能見度: 10公里
散云层高于5000英尺
从 06日的 0200点(UTC)
风速4节,风向南转南东
能見度: 10公里
散云层高于5000英尺
从 06日的 1500点(UTC)
风速9节,风向
能見度: 10公里
多云层高于5000英尺

TAF: KLSE 051732Z 0518/0618 22009KT P6SM SCT050 FM060200 15004KT P6SM SCT050 FM061500 17009KT P6SM BKN050

超过4000个机场的气象观测和天气预报(METAR&TAF报告)。

可查询的气象台以黄色和红色小点在地图上表示。

将鼠标移到小点上方,可查看气象台名称。

然后点击查看天气观测和预报。

如需切换地图:点击带黑十字的绿色按钮放大地图;点击带横线的绿色按钮缩小地图;或者点击绿色箭头查看邻近地区的地图。


METAR-TAF: